Novomar — 5BCT2 — position and weather

sailwx.info

Track history (hours):
 
Tides and Currents Weather Stations Pressure Air Temp Water Temp Dewpoint Dewpoint Depression Visibility Wind Speed Wind Dir Waves Ship Positions

Novomar

Last reported at 2017-Feb-26 21:23 UTC. Time now 2017-Feb-26 23:52 UTC.
Position N 59°35' E 021°41'.

Length 89 m; draft 4.9 m.

Type: Ship. MMSI: 210974000.

Date/timePositionNaut miles runAvg speedWind from/ knotsBaromVisibWave heightAir tempDewpointWater temp
2017-Feb-26 21:23N 59°35' E 021°41'49 9.4
2017-Feb-26 16:08N 59°39' E 023°19'6 9.8
2017-Feb-26 15:33N 59°40' E 023°30'  
2017-Feb-20 13:31N 56°03' E 016°45'9 9.7
2017-Feb-20 12:33N 55°58' E 016°30'10 9.7
2017-Feb-20 11:33N 55°54' E 016°15'10 9.7
2017-Feb-20 10:33N 55°49' E 015°59'10 9.9
2017-Feb-20 09:33N 55°44' E 015°44'10 9.9
2017-Feb-20 08:33N 55°39' E 015°29'1010.1
2017-Feb-20 07:33N 55°34' E 015°14'1110.4
2017-Feb-20 06:32N 55°29' E 014°57'1010.3
2017-Feb-20 05:33N 55°24' E 014°42'1010.1
2017-Feb-20 04:33N 55°17' E 014°29'1010.2
2017-Feb-20 03:33N 55°09' E 014°18'1010.4
2017-Feb-20 02:33N 55°01' E 014°06'1110.7
2017-Feb-20 01:32N 54°57' E 013°48'3110.2
2017-Feb-19 22:31N 54°47' E 012°58'1010.4
2017-Feb-19 21:33N 54°44' E 012°42'1110.5
2017-Feb-19 20:33N 54°38' E 012°26'10 9.9
2017-Feb-19 19:33N 54°30' E 012°16'10 9.7
2017-Feb-19 18:33N 54°24' E 012°03'1110.8
2017-Feb-19 17:33N 54°25' E 011°44'1511.4
2017-Feb-19 16:14N 54°32' E 011°21'812.0
2017-Feb-19 15:33N 54°35' E 011°08'1111.0
2017-Feb-19 14:33N 54°34' E 010°49'62 6.1
2017-Feb-19 04:28N 54°02' E 009°18'8 8.3
2017-Feb-19 03:33N 53°56' E 009°12'3 2.8
2017-Feb-19 02:33N 53°54' E 009°09'2 2.1
2017-Feb-19 01:33N 53°53' E 009°05'7 7.1
2017-Feb-19 00:33N 53°51' E 008°54'7 7.0
2017-Feb-18 23:32N 53°53' E 008°43'7 7.3
2017-Feb-18 22:33N 53°58' E 008°34'8 7.9
2017-Feb-18 21:33N 53°59' E 008°21'9 8.9
2017-Feb-18 20:33N 53°59' E 008°06'251 9.6
2017-Feb-17 18:33N 51°37' E 002°24'1211.9
2017-Feb-17 17:32N 51°28' E 002°12'1311.5
2017-Feb-17 16:25N 51°15' E 002°05'1011.8
2017-Feb-17 15:33N 51°10' E 001°52'1212.1
2017-Feb-17 14:33N 51°02' E 001°37'1111.0
2017-Feb-17 13:33N 50°53' E 001°27'90 8.1
2017-Feb-17 02:21N 50°37' W 000°54'7 9.3
2017-Feb-17 01:33N 50°43' W 001°01'1010.1
2017-Feb-17 00:34N 50°48' W 001°15'  
Track history (hours):
 
Tides and Currents Weather Stations Pressure Air Temp Water Temp Dewpoint Dewpoint Depression Visibility Wind Speed Wind Dir Waves Ship Positions

Novomar

Last reported at 2017-Feb-26 21:23 UTC. Time now 2017-Feb-26 23:52 UTC.
Position N 59°35' E 021°41'.

Length 89 m; draft 4.9 m.

Type: Ship. MMSI: 210974000.

Date/timePositionNaut miles runAvg speedWind from/ knotsBaromVisibWave heightAir tempDewpointWater temp
2017-Feb-26 21:23N 59°35' E 021°41'49 9.4
2017-Feb-26 16:08N 59°39' E 023°19'6 9.8
2017-Feb-26 15:33N 59°40' E 023°30'  
2017-Feb-20 13:31N 56°03' E 016°45'9 9.7
2017-Feb-20 12:33N 55°58' E 016°30'10 9.7
2017-Feb-20 11:33N 55°54' E 016°15'10 9.7
2017-Feb-20 10:33N 55°49' E 015°59'10 9.9
2017-Feb-20 09:33N 55°44' E 015°44'10 9.9
2017-Feb-20 08:33N 55°39' E 015°29'1010.1
2017-Feb-20 07:33N 55°34' E 015°14'1110.4
2017-Feb-20 06:32N 55°29' E 014°57'1010.3
2017-Feb-20 05:33N 55°24' E 014°42'1010.1
2017-Feb-20 04:33N 55°17' E 014°29'1010.2
2017-Feb-20 03:33N 55°09' E 014°18'1010.4
2017-Feb-20 02:33N 55°01' E 014°06'1110.7
2017-Feb-20 01:32N 54°57' E 013°48'3110.2
2017-Feb-19 22:31N 54°47' E 012°58'1010.4
2017-Feb-19 21:33N 54°44' E 012°42'1110.5
2017-Feb-19 20:33N 54°38' E 012°26'10 9.9
2017-Feb-19 19:33N 54°30' E 012°16'10 9.7
2017-Feb-19 18:33N 54°24' E 012°03'1110.8
2017-Feb-19 17:33N 54°25' E 011°44'1511.4
2017-Feb-19 16:14N 54°32' E 011°21'812.0
2017-Feb-19 15:33N 54°35' E 011°08'1111.0
2017-Feb-19 14:33N 54°34' E 010°49'62 6.1
2017-Feb-19 04:28N 54°02' E 009°18'8 8.3
2017-Feb-19 03:33N 53°56' E 009°12'3 2.8
2017-Feb-19 02:33N 53°54' E 009°09'2 2.1
2017-Feb-19 01:33N 53°53' E 009°05'7 7.1
2017-Feb-19 00:33N 53°51' E 008°54'7 7.0
2017-Feb-18 23:32N 53°53' E 008°43'7 7.3
2017-Feb-18 22:33N 53°58' E 008°34'8 7.9
2017-Feb-18 21:33N 53°59' E 008°21'9 8.9
2017-Feb-18 20:33N 53°59' E 008°06'251 9.6
2017-Feb-17 18:33N 51°37' E 002°24'1211.9
2017-Feb-17 17:32N 51°28' E 002°12'1311.5
2017-Feb-17 16:25N 51°15' E 002°05'1011.8
2017-Feb-17 15:33N 51°10' E 001°52'1212.1
2017-Feb-17 14:33N 51°02' E 001°37'1111.0
2017-Feb-17 13:33N 50°53' E 001°27'90 8.1
2017-Feb-17 02:21N 50°37' W 000°54'7 9.3
2017-Feb-17 01:33N 50°43' W 001°01'1010.1
2017-Feb-17 00:34N 50°48' W 001°15'  

Dump ship's entire track history